nws-alerts: Checking more than four warning/county codes can delay the loading of your pages. You should use a cron job to get the data.

Nearby METAR Weather Reports

 

KDMA - Davis/Tucson, Arizona, USA
Distance from station: W 21mi, 34km
Updated: 08/23/2017 5:58am
Clear
Clear
 Wind from calm
Wind: Calm
Temperature: 77°F , 25°C
Dew Point: 61°F , 16°C
Humidity: 57%
Barometer: 30.03 inHg , 1016.9 hPa
Clouds: Clear
Visibility: 10 miles , 16 km
2017/08/23 12:58 KDMA 231258Z AUTO 00000KT 10SM CLR 25/16 A3003 RMK AO2 SLP121 T02490155 $
KTUS - Tucson, Arizona, USA
Distance from station: W 26mi, 42km
Updated: 08/23/2017 5:53am
Clear
Clear
 Wind from W
Wind: W 3 mph , 6 km/h
Temperature: 77°F , 25°C
Dew Point: 61°F , 16°C
Humidity: 57%
Barometer: 30.04 inHg , 1017.3 hPa
Clouds: Clear
Visibility: 10 miles , 16 km
2017/08/23 12:53 KTUS 231253Z 27003KT 10SM CLR 25/16 A3004
 
KALK - Pioneer Airfield, Arizona, USA
Distance from station: S 37mi, 60km
Updated: 08/23/2017 5:56am
Clear
Clear
 Wind from WSW
Wind: WSW 8 mph , 13 km/h
Temperature: 66°F , 19°C
Dew Point: 57°F , 14°C
Humidity: 73%
Barometer: 30.20 inHg , 1022.7 hPa
Clouds: Clear
Visibility: 10 miles , 16 km
2017/08/23 12:56 KALK 231256Z AUTO 24007KT 10SM CLR 19/14 A3020 RMK AO2 SLP131 T01940139 $
KRYN - Tucson/Ryan Fld, Arizona, USA
Distance from station: W 39mi, 62km
Updated: 08/23/2017 5:50am
Clear
Clear
 Wind from calm
Wind: Calm
Temperature: 75°F , 24°C
Dew Point: 61°F , 16°C
Humidity: 61%
Barometer: 30.03 inHg , 1016.9 hPa
Clouds: Clear
Visibility: 10 miles , 16 km
2017/08/23 12:50 KRYN 231250Z 00000KT 10SM CLR 24/16 A3003
 
KFHU - Fort Huachuca, Arizona, USA
Distance from station: SSE 39mi, 63km
Updated: 08/23/2017 5:58am
Clear
Clear
 Wind from WSW
Wind: WSW 6 mph , 9 km/h
Temperature: 70°F , 21°C
Dew Point: 57°F , 14°C
Humidity: 64%
Barometer: 30.19 inHg , 1022.4 hPa
Clouds: Clear
Visibility: 10 miles , 16 km
2017/08/23 12:58 KFHU 231258Z AUTO 25005KT 10SM CLR 21/14 A3019 RMK AO2 SLP146 T02140140
KOLS - Nogales, Arizona, USA
Distance from station: SSW 54mi, 86km
Updated: 08/23/2017 5:54am
Clear
Clear
 Wind from calm
Wind: Calm
Temperature: 70°F , 21°C
Dew Point: 61°F , 16°C
Humidity: 73%
Barometer: 30.13 inHg , 1020.3 hPa
Clouds: Clear
Visibility: 10 miles , 16 km
2017/08/23 12:54 KOLS 231254Z AUTO 00000KT 10SM CLR 21/16 A3013 RMK AO2 SLP129 T02060161
 
KDUG - Douglas Bisbee, Arizona, USA
Distance from station: SE 71mi, 114km
Updated: 08/23/2017 5:56am
Clear
Clear
 Wind from SSW
Wind: SSW 5 mph , 7 km/h
Temperature: 68°F , 20°C
Dew Point: 63°F , 17°C
Humidity: 83%
Barometer: 30.14 inHg , 1020.7 hPa
Clouds: Clear
Visibility: 10 miles , 16 km
2017/08/23 12:56 KDUG 231256Z AUTO 20004KT 10SM CLR 20/17 A3014 RMK AO2 SLP134 T02000167
KSAD - Safford, Arizona, USA
Distance from station: NE 71mi, 114km
Updated: 08/23/2017 5:51am
Clear
Clear
 Wind from calm
Wind: Calm
Temperature: 72°F , 22°C
Dew Point: 54°F , 12°C
Humidity: 53%
Barometer: 30.04 inHg , 1017.3 hPa
Clouds: Clear
Visibility: 10 miles , 16 km
2017/08/23 12:51 KSAD 231251Z AUTO 00000KT 10SM CLR 22/12 A3004 RMK AO2 SLP114 T02220122
 
KCGZ - Casa Granda, Arizona, USA
Distance from station: NW 93mi, 149km
Updated: 08/23/2017 5:56am
Mostly cloudy
Mostly cloudy
 Wind from calm
Wind: Calm
Temperature: 81°F , 27°C
Heat Index: 82°F , 28°C
Dew Point: 61°F , 16°C
Humidity: 51%
Barometer: 29.93 inHg , 1013.5 hPa
Clouds: Mostly cloudy
Visibility: 10 miles , 16 km
Cloud details: Mostly cloudy 11000 ft
2017/08/23 12:56 KCGZ 231256Z AUTO 00000KT 10SM BKN110 27/16 A2993 RMK AO2 SLPNO T02720161 $
KLSB - Lordsburg, New Mexico, USA
Distance from station: E 106mi, 171km
Updated: 08/24/2016 4:15am
NOT Current
Clear
Clear
 Wind from calm
Wind: Calm
Temperature: 61°F , 16°C
Dew Point: 43°F , 6°C
Humidity: 52%
Barometer: 30.15 inHg , 1021 hPa
Clouds: Clear
Visibility: 10 miles , 16 km
2016/08/24 11:15 KLSB 241115Z AUTO 00000KT 10SM CLR 16/06 A3015 RMK AO2
 
KPHX - Phoenix/Sky Hrbr, Arizona, USA
Distance from station: NW 126mi, 202km
Updated: 08/23/2017 5:51am
Mostly cloudy
Mostly cloudy
 Wind from ESE
Wind: ESE 3 mph , 6 km/h
Temperature: 88°F , 31°C
Dew Point: 57°F , 14°C
Humidity: 35%
Barometer: 29.89 inHg , 1012.2 hPa
Clouds: Mostly cloudy
Visibility: 10 miles , 16 km
Cloud details: Mostly cloudy 13000 ft
Mostly cloudy 15000 ft
2017/08/23 12:51 KPHX 231251Z 12003KT 10SM BKN130 BKN150 31/14 A2989 RMK AO2 SLP098 T03110144
KGXF - Gila Bend (aaf), Arizona, USA
Distance from station: WNW 139mi, 223km
Updated: 08/23/2017 5:58am
Mostly cloudy
Mostly cloudy
 Wind from calm
Wind: Calm
Temperature: 84°F , 29°C
Dew Point: 55°F , 13°C
Humidity: 37%
Barometer: 29.88 inHg , 1011.9 hPa
Clouds: Mostly cloudy
Visibility: 9 miles , 14 km
Cloud details: Mostly cloudy 12000 ft
2017/08/23 12:58 KGXF 231258Z AUTO 00000KT 9SM BKN120 29/13 A2988 RMK AO2 SLP104 T02880128
 
KSVC - Silver City, New Mexico, USA
Distance from station: ENE 142mi, 228km
Updated: 08/23/2017 6:35am
Partly cloudy
Partly cloudy
 Wind from NNW
Wind: NNW 5 mph , 7 km/h
Temperature: 63°F , 17°C
Dew Point: 55°F , 13°C
Humidity: 77%
Barometer: 30.25 inHg , 1024.4 hPa
Clouds: Partly cloudy
Visibility: 10 miles , 16 km
Cloud details: Partly cloudy 11000 ft
2017/08/23 13:35 KSVC 231335Z AUTO 33004KT 10SM SCT110 17/13 A3025 RMK AO2 T01660130
KLUF - Luke Afb/Glendal, Arizona, USA
Distance from station: NW 144mi, 232km
Updated: 08/23/2017 5:58am
Few Clouds
Few Clouds
 Wind from W
Wind: W 3 mph , 6 km/h
Temperature: 82°F , 28°C
Dew Point: 54°F , 12°C
Humidity: 37%
Barometer: 29.89 inHg , 1012.2 hPa
Clouds: Few Clouds
Visibility: 10 miles , 16 km
Cloud details: Few Clouds 11000 ft
2017/08/23 12:58 KLUF 231258Z AUTO 26003KT 10SM FEW110 28/12 A2989 RMK AO2 SLP106 T02800123 $